Terminal Aerodrome Forecast
Issued by NWS Lake Charles, LA

Home | Current Version | Previous Version | Text Only | Print | Product List | Glossary On
Versions: 1 2 3 4 5 6 7 8 9 10 11 12 13 14 15 16 17 18 19
000
FTUS44 KLCH 020520
TAFARA
TAF
KARA 020520Z 0206/0306 VRB03KT P6SM VCSH FEW025 BKN150
     FM020800 VRB03KT 5SM -SHRA BR SCT025 BKN120
     FM021400 15006KT P6SM VCSH SCT035 BKN150
     FM030100 VRB03KT P6SM FEW050 BKN200=

USA.gov is the U.S. government's official web portal to all federal, state and local government web resources and services.